Villa del Dique, Argentina
Current Conditions -  °F | °C
As of 5:00 PM on Wednesday 26 Nov 2014 (Local Time) from SACO Reporting Station
Few Clouds Few Clouds  
Wind Chill: 79°   Ceiling: Unl
Heat Index: 79°   Visibility: 6mi
Dew Point: 52°   Wind: 7mph
Humidity: 39%   Direction: 110°ESE
Pressure: 29.97"   Gusts: NA
Location:  32.17°S, 64.48°W
Report Text: SACO 262000Z 11006KT 9999 FEW030 FEW040CB 26/11 Q1015
Loading
Personal Weather Stations






























Interactive Weather Map New forecast layout! Learn more

10-Day Weather Forecast

Advertisements
Track Severe Weather on mobile